Time;durP1;ratioP1;P1;durP2;ratioP2;P2;SDS_P1;SDS_P2;PMS_P1;PMS_P2;Temp;Humidity;BMP_temperature;BMP_pressure;BME280_temperature;BME280_humidity;BME280_pressure;Samples;Min_cycle;Max_cycle;Signal;HPM_P1;HPM_P2
2022/08/30 00:01:23;;;;;;;11.98;8.02;;;;;;;;;;5055032;28;20033;-43
2022/08/30 00:03:48;;;;;;;12.70;7.45;;;;;;;;;;5054040;28;20021;-44
2022/08/30 00:06:15;;;;;;;9.52;7.22;;;;;;;;;;5053841;28;20094;-44
2022/08/30 00:08:41;;;;;;;11.02;7.20;;;;;;;;;;5050892;28;20049;-45
2022/08/30 00:11:08;;;;;;;9.38;7.18;;;;;;;;;;5015397;28;20118;-43
2022/08/30 00:13:34;;;;;;;13.85;8.23;;;;;;;;;;5015031;28;20026;-45
2022/08/30 00:15:59;;;;;;;13.05;7.38;;;;;;;;;;5033214;28;20021;-43
2022/08/30 00:18:25;;;;;;;8.13;6.60;;;;;;;;;;5033176;28;20025;-43
2022/08/30 00:20:50;;;;;;;9.93;6.50;;;;;;;;;;5014965;28;20115;-43
2022/08/30 00:23:16;;;;;;;9.15;6.90;;;;;;;;;;5033294;28;20021;-42
2022/08/30 00:25:42;;;;;;;10.35;6.97;;;;;;;;;;5014734;28;20557;-43
2022/08/30 00:28:08;;;;;;;9.35;6.43;;;;;;;;;;5032921;28;20049;-43
2022/08/30 00:30:34;;;;;;;9.40;6.45;;;;;;;;;;5015277;28;20053;-45
2022/08/30 00:32:59;;;;;;;9.60;7.38;;;;;;;;;;5032407;28;20072;-42
2022/08/30 00:35:25;;;;;;;11.87;7.70;;;;;;;;;;5032961;28;20040;-41
2022/08/30 00:37:50;;;;;;;9.50;7.05;;;;;;;;;;5033049;28;20322;-46
2022/08/30 00:40:16;;;;;;;10.48;8.20;;;;;;;;;;5014868;28;20025;-44
2022/08/30 00:42:42;;;;;;;9.43;7.13;;;;;;;;;;5014698;28;20029;-42
2022/08/30 00:45:11;;;;;;;11.32;7.68;;;;;;;;;;5014891;28;20025;-43
2022/08/30 00:47:36;;;;;;;8.43;6.85;;;;;;;;;;5032761;28;20075;-44
2022/08/30 00:50:02;;;;;;;8.83;6.93;;;;;;;;;;5032536;28;20022;-43
2022/08/30 00:52:27;;;;;;;12.02;7.47;;;;;;;;;;5030836;28;20706;-42
2022/08/30 00:54:53;;;;;;;9.23;6.30;;;;;;;;;;5052684;28;20051;-43
2022/08/30 00:57:18;;;;;;;9.27;7.10;;;;;;;;;;5052336;28;20242;-41
2022/08/30 00:59:45;;;;;;;9.45;6.43;;;;;;;;;;5052404;28;20250;-47
2022/08/30 01:02:11;;;;;;;7.85;6.10;;;;;;;;;;5052680;28;20021;-40
2022/08/30 01:04:37;;;;;;;9.13;6.78;;;;;;;;;;5052256;28;20028;-42
2022/08/30 01:07:03;;;;;;;14.40;8.05;;;;;;;;;;5052680;28;20028;-41
2022/08/30 01:09:28;;;;;;;8.98;6.93;;;;;;;;;;5010750;28;1204260;-40
2022/08/30 01:11:55;;;;;;;12.32;8.43;;;;;;;;;;5034982;28;20041;-43
2022/08/30 01:14:21;;;;;;;10.50;7.45;;;;;;;;;;5052933;28;20013;-43
2022/08/30 01:16:47;;;;;;;10.00;6.57;;;;;;;;;;5053110;28;20425;-42
2022/08/30 01:19:22;;;;;;;11.25;7.93;;;;;;;;;;5034663;28;20603;-43
2022/08/30 01:21:51;;;;;;;12.13;7.72;;;;;;;;;;5035347;28;20021;-43
2022/08/30 01:24:16;;;;;;;;;;;;;;;;;;5053283;28;20547;-43
2022/08/30 01:26:41;;;;;;;14.97;7.63;;;;;;;;;;5035131;28;19905;-45
2022/08/30 01:29:08;;;;;;;12.10;7.38;;;;;;;;;;5034624;28;20454;-44
2022/08/30 01:31:35;;;;;;;10.63;7.65;;;;;;;;;;5052539;28;20100;-43
2022/08/30 01:34:01;;;;;;;10.07;7.68;;;;;;;;;;5051694;28;20112;-43
2022/08/30 01:36:27;;;;;;;10.35;7.65;;;;;;;;;;5052913;28;20107;-42
2022/08/30 01:38:55;;;;;;;12.43;7.88;;;;;;;;;;5034393;28;20023;-45
2022/08/30 01:41:23;;;;;;;13.23;7.93;;;;;;;;;;5034445;28;20056;-44
2022/08/30 01:43:49;;;;;;;12.40;8.43;;;;;;;;;;5052437;28;20017;-45
2022/08/30 01:46:16;;;;;;;13.57;8.43;;;;;;;;;;5052453;28;20465;-43
2022/08/30 01:48:42;;;;;;;13.57;8.85;;;;;;;;;;5052039;28;20074;-41
2022/08/30 01:51:11;;;;;;;14.63;7.95;;;;;;;;;;5047093;28;20021;-43
2022/08/30 01:53:37;;;;;;;13.18;9.70;;;;;;;;;;5032902;28;20041;-43
2022/08/30 01:56:04;;;;;;;12.73;8.63;;;;;;;;;;5014458;28;20025;-42
2022/08/30 01:58:29;;;;;;;10.18;8.20;;;;;;;;;;5032987;28;20026;-45
2022/08/30 02:00:55;;;;;;;13.95;9.07;;;;;;;;;;5014113;28;20033;-45
2022/08/30 02:03:20;;;;;;;14.07;9.67;;;;;;;;;;5032796;28;20030;-45
2022/08/30 02:05:47;;;;;;;11.85;8.20;;;;;;;;;;5014241;28;20807;-43
2022/08/30 02:08:12;;;;;;;14.55;10.23;;;;;;;;;;5032506;28;20044;-45
2022/08/30 02:10:37;;;;;;;15.52;9.80;;;;;;;;;;5031704;28;20505;-44
2022/08/30 02:13:03;;;;;;;12.07;9.40;;;;;;;;;;5014223;28;20044;-44
2022/08/30 02:15:28;;;;;;;13.63;10.25;;;;;;;;;;5014328;28;20067;-42
2022/08/30 02:17:53;;;;;;;12.00;9.40;;;;;;;;;;5013542;28;20057;-46
2022/08/30 02:20:19;;;;;;;13.93;9.13;;;;;;;;;;5014434;28;20052;-44
2022/08/30 02:22:44;;;;;;;13.93;9.20;;;;;;;;;;5032221;28;20026;-44
2022/08/30 02:25:09;;;;;;;12.80;10.02;;;;;;;;;;5032008;28;20104;-41
2022/08/30 02:27:34;;;;;;;13.00;9.10;;;;;;;;;;5013958;28;20116;-45
2022/08/30 02:30:00;;;;;;;15.77;9.80;;;;;;;;;;5013611;28;20013;-43
2022/08/30 02:32:25;;;;;;;17.13;10.98;;;;;;;;;;5031562;28;20030;-42
2022/08/30 02:34:51;;;;;;;15.25;9.77;;;;;;;;;;5032406;28;20028;-46
2022/08/30 02:37:16;;;;;;;17.13;11.38;;;;;;;;;;5031737;28;20406;-44
2022/08/30 02:39:42;;;;;;;15.93;10.00;;;;;;;;;;5031905;28;20027;-45
2022/08/30 02:42:07;;;;;;;15.82;10.85;;;;;;;;;;5013906;28;20026;-42
2022/08/30 02:44:33;;;;;;;15.30;10.98;;;;;;;;;;5013533;28;20504;-44
2022/08/30 02:46:58;;;;;;;16.05;10.18;;;;;;;;;;5031825;28;20026;-45
2022/08/30 02:49:23;;;;;;;17.38;10.55;;;;;;;;;;5013785;28;20480;-44
2022/08/30 02:51:49;;;;;;;15.93;10.63;;;;;;;;;;5042328;28;20029;-43
2022/08/30 02:54:18;;;;;;;15.43;10.98;;;;;;;;;;5051040;28;20324;-43
2022/08/30 02:56:44;;;;;;;13.52;10.13;;;;;;;;;;5050984;28;20025;-43
2022/08/30 02:59:09;;;;;;;13.23;9.02;;;;;;;;;;5051131;28;20020;-44
2022/08/30 03:01:37;;;;;;;14.43;10.30;;;;;;;;;;5033173;28;20032;-43
2022/08/30 03:04:03;;;;;;;14.18;10.50;;;;;;;;;;5032872;28;20126;-44
2022/08/30 03:06:29;;;;;;;12.35;9.40;;;;;;;;;;5051282;28;20423;-46
2022/08/30 03:08:55;;;;;;;16.60;9.98;;;;;;;;;;5051329;28;20103;-44
2022/08/30 03:11:21;;;;;;;14.40;10.13;;;;;;;;;;5051566;28;20104;-42
2022/08/30 03:13:47;;;;;;;16.67;10.73;;;;;;;;;;5051138;28;20368;-45
2022/08/30 03:16:12;;;;;;;14.70;10.10;;;;;;;;;;5050900;28;20544;-44
2022/08/30 03:18:37;;;;;;;15.70;10.52;;;;;;;;;;5032998;28;20017;-43
2022/08/30 03:21:07;;;;;;;15.45;10.88;;;;;;;;;;5051141;28;20068;-44
2022/08/30 03:23:33;;;;;;;15.55;10.80;;;;;;;;;;5033483;28;20032;-42
2022/08/30 03:25:58;;;;;;;15.90;10.47;;;;;;;;;;5051173;28;20415;-43
2022/08/30 03:28:23;;;;;;;17.65;10.95;;;;;;;;;;5051195;28;20325;-43
2022/08/30 03:30:49;;;;;;;19.48;11.50;;;;;;;;;;5050789;28;20071;-43
2022/08/30 03:33:14;;;;;;;16.40;11.65;;;;;;;;;;5050726;28;20040;-42
2022/08/30 03:35:39;;;;;;;18.67;11.35;;;;;;;;;;5032979;28;20021;-43
2022/08/30 03:38:05;;;;;;;19.10;11.63;;;;;;;;;;5032862;28;20063;-44
2022/08/30 03:40:30;;;;;;;15.75;10.93;;;;;;;;;;5033242;28;20372;-46
2022/08/30 03:42:55;;;;;;;15.77;10.95;;;;;;;;;;5050465;28;20059;-41
2022/08/30 03:45:21;;;;;;;16.17;11.37;;;;;;;;;;5050678;28;20021;-42
2022/08/30 03:47:46;;;;;;;20.53;12.10;;;;;;;;;;5050932;28;20545;-43
2022/08/30 03:50:12;;;;;;;14.50;11.43;;;;;;;;;;5051115;28;20238;-43
2022/08/30 03:52:37;;;;;;;17.27;12.13;;;;;;;;;;5033985;28;20030;-44
2022/08/30 03:55:03;;;;;;;17.08;11.52;;;;;;;;;;5030572;28;20028;-41
2022/08/30 03:57:29;;;;;;;14.75;10.98;;;;;;;;;;5034539;28;20033;-43
2022/08/30 03:59:54;;;;;;;19.50;11.47;;;;;;;;;;5035003;28;20067;-43
2022/08/30 04:02:19;;;;;;;18.52;12.05;;;;;;;;;;5034263;28;20247;-44
2022/08/30 04:04:45;;;;;;;14.43;12.00;;;;;;;;;;5034286;28;20052;-43
2022/08/30 04:07:10;;;;;;;20.33;12.57;;;;;;;;;;5016688;28;20017;-43
2022/08/30 04:09:35;;;;;;;20.02;12.82;;;;;;;;;;5033996;28;20483;-40
2022/08/30 04:12:01;;;;;;;19.20;12.60;;;;;;;;;;5034358;28;20037;-42
2022/08/30 04:14:26;;;;;;;20.35;12.57;;;;;;;;;;5034241;28;20247;-41
2022/08/30 04:16:51;;;;;;;18.40;13.23;;;;;;;;;;5033711;28;20032;-45
2022/08/30 04:19:17;;;;;;;20.00;13.10;;;;;;;;;;5034123;28;20617;-44
2022/08/30 04:21:43;;;;;;;17.38;12.52;;;;;;;;;;5033797;28;20531;-43
2022/08/30 04:24:09;;;;;;;16.15;11.35;;;;;;;;;;5034233;28;20488;-42
2022/08/30 04:26:34;;;;;;;16.77;12.15;;;;;;;;;;5034348;28;20013;-41
2022/08/30 04:29:00;;;;;;;16.70;12.07;;;;;;;;;;5016304;28;20021;-42
2022/08/30 04:31:26;;;;;;;16.83;11.77;;;;;;;;;;5033784;28;20057;-44
2022/08/30 04:33:51;;;;;;;19.52;12.88;;;;;;;;;;5033716;28;20041;-45
2022/08/30 04:36:16;;;;;;;17.20;12.40;;;;;;;;;;5034380;28;20048;-45
2022/08/30 04:38:42;;;;;;;17.58;12.20;;;;;;;;;;5015956;28;20026;-44
2022/08/30 04:41:08;;;;;;;21.33;12.93;;;;;;;;;;5033854;28;20555;-41
2022/08/30 04:43:33;;;;;;;21.65;13.20;;;;;;;;;;5033898;28;20347;-43
2022/08/30 04:45:59;;;;;;;20.35;13.13;;;;;;;;;;5015672;28;20029;-43
2022/08/30 04:48:24;;;;;;;18.35;12.68;;;;;;;;;;5033443;28;20022;-46
2022/08/30 04:50:49;;;;;;;16.63;12.35;;;;;;;;;;5018018;28;20051;-43
2022/08/30 04:53:15;;;;;;;18.30;11.93;;;;;;;;;;5053447;28;20501;-43
2022/08/30 04:55:42;;;;;;;18.13;12.05;;;;;;;;;;5053254;28;20027;-45
2022/08/30 04:58:07;;;;;;;18.70;12.48;;;;;;;;;;5052787;28;20021;-43
2022/08/30 05:00:33;;;;;;;20.08;13.20;;;;;;;;;;5035367;28;20036;-42
2022/08/30 05:02:59;;;;;;;18.33;12.87;;;;;;;;;;5034884;28;20052;-43
2022/08/30 05:05:40;;;;;;;20.67;13.45;;;;;;;;;;5035572;28;20297;-42
2022/08/30 05:08:10;;;;;;;14.95;11.30;;;;;;;;;;5034133;28;20054;-45
2022/08/30 05:10:39;;;;;;;19.20;13.40;;;;;;;;;;5052645;28;20136;-41
2022/08/30 05:13:05;;;;;;;16.17;11.70;;;;;;;;;;5052904;28;20037;-43
2022/08/30 05:15:30;;;;;;;16.38;12.27;;;;;;;;;;5052787;28;20051;-42
2022/08/30 05:17:55;;;;;;;19.58;12.57;;;;;;;;;;5052138;28;20491;-40
2022/08/30 05:20:21;;;;;;;20.90;13.13;;;;;;;;;;5052705;28;20025;-41
2022/08/30 05:22:49;;;;;;;27.05;13.50;;;;;;;;;;5052598;28;20261;-41
2022/08/30 05:25:25;;;;;;;19.57;12.83;;;;;;;;;;5053284;28;20097;-40
2022/08/30 05:27:51;;;;;;;24.17;14.10;;;;;;;;;;5034954;28;20013;-44
2022/08/30 05:30:17;;;;;;;15.57;10.73;;;;;;;;;;5052453;28;20025;-41
2022/08/30 05:32:42;;;;;;;14.45;10.43;;;;;;;;;;5052514;28;20037;-44
2022/08/30 05:35:09;;;;;;;16.05;11.15;;;;;;;;;;5052761;28;20021;-42
2022/08/30 05:37:34;;;;;;;17.58;12.05;;;;;;;;;;5052451;28;20017;-43
2022/08/30 05:40:00;;;;;;;12.93;10.13;;;;;;;;;;5052190;28;20025;-43
2022/08/30 05:42:25;;;;;;;18.20;12.85;;;;;;;;;;5052077;28;20028;-44
2022/08/30 05:44:51;;;;;;;14.65;11.18;;;;;;;;;;5032592;28;20111;-44
2022/08/30 05:47:16;;;;;;;18.90;11.32;;;;;;;;;;5032146;28;20098;-43
2022/08/30 05:49:42;;;;;;;15.73;11.68;;;;;;;;;;5035006;28;20421;-46
2022/08/30 05:52:07;;;;;;;17.40;11.20;;;;;;;;;;5029418;28;20044;-42
2022/08/30 05:54:32;;;;;;;13.50;10.95;;;;;;;;;;5027256;28;20281;-41
2022/08/30 05:56:58;;;;;;;15.55;10.90;;;;;;;;;;5039301;28;20101;-42
2022/08/30 05:59:23;;;;;;;16.55;10.65;;;;;;;;;;5051373;28;20012;-43
2022/08/30 06:01:49;;;;;;;14.97;11.10;;;;;;;;;;5041230;28;20017;-43
2022/08/30 06:04:14;;;;;;;15.02;9.98;;;;;;;;;;5030964;28;20812;-45
2022/08/30 06:06:41;;;;;;;15.57;10.43;;;;;;;;;;5026099;28;20021;-44
2022/08/30 06:09:07;;;;;;;12.10;9.85;;;;;;;;;;5038868;28;20055;-41
2022/08/30 06:11:32;;;;;;;11.73;8.95;;;;;;;;;;5062341;28;20139;-43
2022/08/30 06:13:58;;;;;;;9.25;7.65;;;;;;;;;;5057207;28;20116;-46
2022/08/30 06:16:24;;;;;;;12.88;9.40;;;;;;;;;;5063138;28;20029;-43
2022/08/30 06:18:50;;;;;;;10.38;8.30;;;;;;;;;;5061206;28;20067;-44
2022/08/30 06:21:23;;;;;;;11.63;8.15;;;;;;;;;;5071444;28;20592;-42
2022/08/30 06:23:49;;;;;;;12.18;8.68;;;;;;;;;;5061806;28;20016;-43
2022/08/30 06:26:15;;;;;;;14.05;7.93;;;;;;;;;;5064623;28;20023;-42
2022/08/30 06:28:40;;;;;;;13.68;6.60;;;;;;;;;;5064475;28;20028;-43
2022/08/30 06:31:06;;;;;;;9.82;7.30;;;;;;;;;;5062761;28;20017;-45
2022/08/30 06:33:32;;;;;;;9.73;6.50;;;;;;;;;;5060761;28;20465;-46
2022/08/30 06:36:07;;;;;;;9.07;6.35;;;;;;;;;;5062606;28;20013;-43
2022/08/30 06:38:33;;;;;;;10.32;6.43;;;;;;;;;;5050318;28;20025;-45
2022/08/30 06:40:58;;;;;;;9.13;6.18;;;;;;;;;;5051208;28;20333;-43
2022/08/30 06:43:23;;;;;;;12.13;6.32;;;;;;;;;;5051775;28;20360;-44
2022/08/30 06:45:48;;;;;;;9.10;6.63;;;;;;;;;;5067544;28;20434;-43
2022/08/30 06:48:14;;;;;;;7.83;5.93;;;;;;;;;;5065550;28;20013;-44
2022/08/30 06:50:40;;;;;;;16.90;7.07;;;;;;;;;;5067412;28;20023;-42
2022/08/30 06:53:06;;;;;;;7.75;5.97;;;;;;;;;;5069953;28;20308;-42
2022/08/30 06:55:32;;;;;;;12.48;6.90;;;;;;;;;;5068182;28;20455;-44
2022/08/30 06:57:58;;;;;;;10.82;6.13;;;;;;;;;;5058928;28;20364;-42
2022/08/30 07:00:23;;;;;;;12.05;6.07;;;;;;;;;;5064113;28;20024;-42
2022/08/30 07:02:49;;;;;;;11.90;5.63;;;;;;;;;;5061860;28;20448;-42
2022/08/30 07:05:15;;;;;;;14.70;6.17;;;;;;;;;;5065375;28;20043;-43
2022/08/30 07:07:40;;;;;;;13.38;6.20;;;;;;;;;;5068256;28;20268;-43
2022/08/30 07:10:06;;;;;;;11.10;6.27;;;;;;;;;;5054030;28;20465;-42
2022/08/30 07:12:31;;;;;;;6.50;5.38;;;;;;;;;;5048269;28;20392;-43
2022/08/30 07:14:57;;;;;;;7.90;5.93;;;;;;;;;;5048377;28;20469;-41
2022/08/30 07:20:06;;;;;;;10.73;5.55;;;;;;;;;;5041060;28;20075;-42
2022/08/30 07:22:32;;;;;;;6.55;5.28;;;;;;;;;;5028939;28;20470;-45
2022/08/30 07:24:57;;;;;;;8.93;6.10;;;;;;;;;;5044468;28;20437;-43
2022/08/30 07:27:22;;;;;;;13.18;6.22;;;;;;;;;;5043872;28;20036;-41
2022/08/30 07:29:48;;;;;;;11.97;6.10;;;;;;;;;;5047979;28;20020;-43
2022/08/30 07:32:13;;;;;;;11.70;5.28;;;;;;;;;;5046862;28;20033;-41
2022/08/30 07:34:39;;;;;;;11.88;5.38;;;;;;;;;;5049574;28;20028;-42
2022/08/30 07:37:04;;;;;;;9.47;5.00;;;;;;;;;;5052922;28;20036;-44
2022/08/30 07:39:29;;;;;;;9.60;4.93;;;;;;;;;;5035222;28;20686;-43
2022/08/30 07:41:55;;;;;;;8.60;5.00;;;;;;;;;;5034786;28;20407;-41
2022/08/30 07:44:20;;;;;;;9.70;5.20;;;;;;;;;;5049954;28;20262;-43
2022/08/30 07:46:45;;;;;;;11.30;5.47;;;;;;;;;;5051885;28;20021;-42
2022/08/30 07:49:11;;;;;;;12.17;5.33;;;;;;;;;;5052100;28;20017;-44
2022/08/30 07:51:37;;;;;;;12.65;5.13;;;;;;;;;;5050657;28;20096;-40
2022/08/30 07:54:03;;;;;;;6.30;4.40;;;;;;;;;;5047175;28;20445;-42
2022/08/30 07:56:28;;;;;;;10.23;4.13;;;;;;;;;;5033159;28;20468;-42
2022/08/30 07:58:53;;;;;;;8.03;4.97;;;;;;;;;;5045124;28;20017;-41
2022/08/30 08:01:19;;;;;;;8.40;5.03;;;;;;;;;;5053927;28;20048;-40
2022/08/30 08:03:46;;;;;;;9.18;4.38;;;;;;;;;;5035987;28;20252;-41
2022/08/30 08:06:12;;;;;;;10.38;4.60;;;;;;;;;;5053049;28;20019;-45
2022/08/30 08:08:39;;;;;;;10.63;4.10;;;;;;;;;;5052924;28;20164;-41
2022/08/30 08:11:08;;;;;;;7.30;3.92;;;;;;;;;;5053303;28;20586;-42
2022/08/30 08:13:34;;;;;;;6.60;4.40;;;;;;;;;;5053197;28;20032;-42
2022/08/30 08:15:59;;;;;;;11.82;4.55;;;;;;;;;;5035282;28;20017;-41
2022/08/30 08:18:24;;;;;;;7.43;4.00;;;;;;;;;;5053132;28;20021;-43
2022/08/30 08:20:50;;;;;;;5.53;3.20;;;;;;;;;;5053448;28;20016;-43
2022/08/30 08:23:15;;;;;;;16.23;4.37;;;;;;;;;;5053383;28;20706;-40
2022/08/30 08:25:40;;;;;;;10.03;3.87;;;;;;;;;;5052912;28;20009;-41
2022/08/30 08:28:05;;;;;;;7.20;3.95;;;;;;;;;;5034852;28;20020;-43
2022/08/30 08:30:32;;;;;;;6.83;3.87;;;;;;;;;;5050295;28;20021;-43
2022/08/30 08:32:57;;;;;;;10.90;4.63;;;;;;;;;;5039830;28;20285;-42
2022/08/30 08:35:23;;;;;;;12.13;4.17;;;;;;;;;;5048391;28;20024;-45
2022/08/30 08:37:48;;;;;;;6.63;3.58;;;;;;;;;;5040325;28;20049;-44
2022/08/30 08:40:15;;;;;;;6.03;3.60;;;;;;;;;;5050928;28;20033;-45
2022/08/30 08:42:59;;;;;;;8.35;3.63;;;;;;;;;;5050587;28;20025;-44
2022/08/30 08:45:43;;;;;;;8.43;4.38;;;;;;;;;;5047055;28;20045;-44
2022/08/30 08:48:24;;;;;;;7.80;4.20;;;;;;;;;;5043317;28;20117;-45
2022/08/30 08:53:34;;;;;;;9.77;4.30;;;;;;;;;;5045390;28;20503;-45
2022/08/30 08:56:02;;;;;;;5.47;4.00;;;;;;;;;;5048460;28;20028;-44
2022/08/30 08:58:29;;;;;;;5.65;3.78;;;;;;;;;;5048510;28;20511;-44
2022/08/30 09:00:56;;;;;;;5.90;4.15;;;;;;;;;;5047358;28;20021;-44
2022/08/30 09:03:22;;;;;;;7.43;4.05;;;;;;;;;;5046518;28;20032;-45
2022/08/30 09:05:49;;;;;;;8.00;3.63;;;;;;;;;;5044001;28;20029;-45
2022/08/30 09:08:15;;;;;;;8.02;3.85;;;;;;;;;;5049454;28;20021;-44
2022/08/30 09:10:44;;;;;;;17.67;5.65;;;;;;;;;;5048865;28;20067;-45
2022/08/30 09:13:09;;;;;;;8.20;4.10;;;;;;;;;;5050440;28;20059;-41
2022/08/30 09:15:35;;;;;;;13.63;3.97;;;;;;;;;;5041310;28;20021;-44
2022/08/30 09:18:02;;;;;;;7.22;4.03;;;;;;;;;;5048520;28;20106;-43
2022/08/30 09:20:35;;;;;;;5.60;3.72;;;;;;;;;;5050309;28;20028;-40
2022/08/30 09:23:13;;;;;;;6.20;3.53;;;;;;;;;;5048643;28;20468;-40
2022/08/30 09:25:48;;;;;;;6.85;3.30;;;;;;;;;;5022861;28;20388;-42
2022/08/30 09:28:17;;;;;;;7.57;3.58;;;;;;;;;;5028302;28;20024;-40
2022/08/30 09:30:47;;;;;;;;;;;;;;;;;;5030070;28;20025;-47
2022/08/30 09:33:19;;;;;;;6.47;3.53;;;;;;;;;;5051742;28;19917;-45
2022/08/30 09:35:48;;;;;;;4.90;3.20;;;;;;;;;;5049776;28;20024;-42
2022/08/30 09:38:31;;;;;;;5.35;3.38;;;;;;;;;;5031885;28;20763;-43
2022/08/30 09:40:58;;;;;;;5.22;3.20;;;;;;;;;;5038001;28;20032;-43
2022/08/30 09:43:28;;;;;;;8.52;3.67;;;;;;;;;;5035065;28;20022;-47
2022/08/30 09:45:59;;;;;;;5.63;3.60;;;;;;;;;;5031292;28;20107;-45
2022/08/30 09:48:32;;;;;;;9.45;2.90;;;;;;;;;;5043997;28;20051;-42
2022/08/30 09:51:06;;;;;;;12.00;2.90;;;;;;;;;;5047418;28;20087;-44
2022/08/30 09:53:33;;;;;;;5.47;2.50;;;;;;;;;;5049633;28;20469;-42
2022/08/30 09:56:05;;;;;;;6.78;2.67;;;;;;;;;;5051585;28;20021;-43
2022/08/30 09:58:45;;;;;;;5.97;3.03;;;;;;;;;;5044475;28;20059;-43
2022/08/30 10:01:19;;;;;;;4.07;2.90;;;;;;;;;;5030093;28;20025;-43
2022/08/30 10:03:47;;;;;;;6.00;2.60;;;;;;;;;;5040485;28;20461;-44
2022/08/30 10:06:18;;;;;;;8.02;2.50;;;;;;;;;;5031389;28;20108;-43
2022/08/30 10:08:59;;;;;;;4.65;2.80;;;;;;;;;;5015377;28;20269;-42
2022/08/30 10:11:32;;;;;;;7.80;2.83;;;;;;;;;;5032375;28;20052;-40
2022/08/30 10:14:21;;;;;;;4.78;2.80;;;;;;;;;;5040313;28;20044;-45
2022/08/30 10:16:49;;;;;;;8.03;2.70;;;;;;;;;;5030858;28;20017;-41
2022/08/30 10:19:15;;;;;;;;;;;;;;;;;;5046539;28;20023;-42
2022/08/30 10:21:45;;;;;;;12.13;3.13;;;;;;;;;;5031374;28;19908;-42
2022/08/30 10:24:13;;;;;;;5.20;2.67;;;;;;;;;;5036101;28;20410;-43
2022/08/30 10:26:42;;;;;;;8.80;3.05;;;;;;;;;;5032530;28;20028;-43
2022/08/30 10:29:15;;;;;;;5.00;2.70;;;;;;;;;;5051119;28;20021;-42
2022/08/30 10:31:43;;;;;;;6.18;2.65;;;;;;;;;;5038974;28;20049;-44
2022/08/30 10:34:13;;;;;;;5.40;2.97;;;;;;;;;;5043433;28;20041;-43
2022/08/30 10:36:43;;;;;;;3.53;2.40;;;;;;;;;;5044030;28;20029;-42
2022/08/30 10:39:12;;;;;;;3.65;2.50;;;;;;;;;;5024748;28;20032;-38
2022/08/30 10:41:40;;;;;;;5.80;2.80;;;;;;;;;;5042177;28;20036;-44
2022/08/30 10:44:05;;;;;;;5.40;2.30;;;;;;;;;;5047609;28;20021;-43
2022/08/30 10:46:34;;;;;;;4.28;1.95;;;;;;;;;;5030752;28;20105;-46
2022/08/30 10:48:59;;;;;;;;;;;;;;;;;;5042186;28;20104;-44
2022/08/30 10:51:31;;;;;;;7.97;2.60;;;;;;;;;;5030014;28;19992;-38
2022/08/30 10:54:01;;;;;;;5.07;2.50;;;;;;;;;;5028028;28;20037;-41
2022/08/30 10:56:28;;;;;;;9.88;2.63;;;;;;;;;;5029961;28;20051;-42
2022/08/30 10:58:55;;;;;;;5.13;2.20;;;;;;;;;;5049851;28;20059;-42
2022/08/30 11:01:26;;;;;;;2.60;2.10;;;;;;;;;;5044259;28;20025;-44
2022/08/30 11:04:02;;;;;;;7.13;2.40;;;;;;;;;;5031442;28;20078;-42
2022/08/30 11:06:42;;;;;;;7.45;2.58;;;;;;;;;;5035550;28;20094;-43
2022/08/30 11:09:16;;;;;;;5.22;2.22;;;;;;;;;;5052871;28;20144;-46
2022/08/30 11:12:01;;;;;;;10.25;2.38;;;;;;;;;;5033652;28;20112;-41
2022/08/30 11:14:27;;;;;;;5.38;2.33;;;;;;;;;;5049843;28;20036;-44
2022/08/30 11:16:53;;;;;;;3.97;2.08;;;;;;;;;;5023830;28;20021;-44
2022/08/30 11:19:28;;;;;;;3.13;2.00;;;;;;;;;;5030695;28;20021;-43
2022/08/30 11:22:10;;;;;;;6.60;2.08;;;;;;;;;;5034713;28;20044;-43
2022/08/30 11:24:54;;;;;;;3.83;2.45;;;;;;;;;;5025339;28;20009;-45
2022/08/30 11:27:38;;;;;;;2.78;1.88;;;;;;;;;;5023874;28;20028;-43
2022/08/30 11:30:22;;;;;;;4.30;2.20;;;;;;;;;;5051371;28;20444;-43
2022/08/30 11:33:06;;;;;;;3.47;2.40;;;;;;;;;;5031663;28;20099;-45
2022/08/30 11:35:40;;;;;;;4.82;1.95;;;;;;;;;;5035595;28;20009;-40
2022/08/30 11:38:41;;;;;;;2.90;2.42;;;;;;;;;;5051196;28;20033;-43
2022/08/30 11:41:28;;;;;;;3.38;1.88;;;;;;;;;;4972639;28;20027;-43
2022/08/30 11:43:54;;;;;;;2.75;2.10;;;;;;;;;;5029308;28;20021;-44
2022/08/30 11:46:26;;;;;;;4.82;1.95;;;;;;;;;;5040688;28;20029;-47
2022/08/30 11:49:11;;;;;;;3.10;1.90;;;;;;;;;;5047483;28;20526;-44
2022/08/30 11:51:55;;;;;;;4.70;2.00;;;;;;;;;;5022361;28;20024;-40
2022/08/30 11:54:32;;;;;;;2.95;2.00;;;;;;;;;;5045539;28;20055;-46
2022/08/30 11:57:16;;;;;;;5.28;2.35;;;;;;;;;;5049566;28;20314;-45
2022/08/30 12:00:00;;;;;;;5.35;1.98;;;;;;;;;;5032310;28;20029;-43
2022/08/30 12:02:46;;;;;;;4.70;1.70;;;;;;;;;;5043333;28;20400;-44
2022/08/30 12:05:29;;;;;;;4.45;1.92;;;;;;;;;;5050317;28;20029;-42
2022/08/30 12:07:59;;;;;;;5.22;1.85;;;;;;;;;;5052283;28;20027;-44
2022/08/30 12:10:40;;;;;;;5.53;2.40;;;;;;;;;;5043033;28;20037;-43
2022/08/30 12:13:06;;;;;;;6.57;2.42;;;;;;;;;;5052619;28;20032;-49
2022/08/30 12:15:50;;;;;;;8.13;1.85;;;;;;;;;;5052895;28;20032;-44
2022/08/30 12:18:26;;;;;;;3.10;1.30;;;;;;;;;;5030836;28;20104;-44
2022/08/30 12:20:52;;;;;;;1.88;1.20;;;;;;;;;;5032586;28;20070;-45
2022/08/30 12:23:38;;;;;;;2.55;1.70;;;;;;;;;;5026980;28;20025;-43
2022/08/30 12:26:09;;;;;;;2.53;1.13;;;;;;;;;;5048236;28;20029;-42
2022/08/30 12:28:35;;;;;;;3.83;1.50;;;;;;;;;;5030796;28;20029;-44
2022/08/30 12:31:11;;;;;;;1.40;1.23;;;;;;;;;;5049479;28;20042;-44
2022/08/30 12:33:42;;;;;;;4.03;1.45;;;;;;;;;;5050896;28;20025;-44
2022/08/30 12:36:34;;;;;;;2.30;1.55;;;;;;;;;;5050463;28;20023;-44
2022/08/30 12:39:14;;;;;;;4.20;1.20;;;;;;;;;;4994902;28;20056;-43
2022/08/30 12:41:40;;;;;;;1.98;1.20;;;;;;;;;;5032588;28;20126;-43
2022/08/30 12:44:08;;;;;;;3.40;1.60;;;;;;;;;;5051809;28;20621;-44
2022/08/30 12:46:34;;;;;;;4.00;1.50;;;;;;;;;;5051334;28;20082;-44
2022/08/30 12:48:59;;;;;;;5.00;1.40;;;;;;;;;;5043051;28;20033;-44
2022/08/30 12:51:29;;;;;;;2.57;1.50;;;;;;;;;;5028202;28;20043;-43
2022/08/30 12:54:01;;;;;;;2.13;1.40;;;;;;;;;;5047923;28;20380;-45
2022/08/30 12:56:44;;;;;;;2.83;1.55;;;;;;;;;;5028028;28;20049;-45
2022/08/30 12:59:09;;;;;;;4.38;1.50;;;;;;;;;;5034402;28;20060;-44
2022/08/30 13:01:35;;;;;;;3.13;1.33;;;;;;;;;;5049701;28;20059;-44
2022/08/30 13:04:01;;;;;;;7.97;1.70;;;;;;;;;;5028587;28;20025;-45
2022/08/30 13:06:47;;;;;;;6.25;2.05;;;;;;;;;;5042708;28;20322;-45
2022/08/30 13:09:32;;;;;;;2.75;1.45;;;;;;;;;;5024677;28;20042;-44
2022/08/30 13:11:58;;;;;;;2.42;1.63;;;;;;;;;;5042230;28;20100;-46
2022/08/30 13:14:33;;;;;;;2.17;1.73;;;;;;;;;;5045140;28;20108;-42
2022/08/30 13:17:17;;;;;;;3.70;1.75;;;;;;;;;;5050405;28;20367;-46
2022/08/30 13:19:42;;;;;;;2.55;1.70;;;;;;;;;;5024064;28;20561;-44
2022/08/30 13:22:27;;;;;;;1.93;1.73;;;;;;;;;;5044012;28;20048;-45
2022/08/30 13:24:54;;;;;;;1.77;1.40;;;;;;;;;;5024401;28;20263;-45
2022/08/30 13:27:20;;;;;;;45.85;3.88;;;;;;;;;;5046893;28;20056;-44
2022/08/30 13:29:45;;;;;;;4.28;2.00;;;;;;;;;;5041845;28;20488;-45
2022/08/30 13:32:12;;;;;;;3.97;1.80;;;;;;;;;;5049500;28;20025;-45
2022/08/30 13:34:38;;;;;;;2.80;1.90;;;;;;;;;;5047405;28;20052;-44
2022/08/30 13:37:03;;;;;;;4.25;1.60;;;;;;;;;;5041175;28;20454;-43
2022/08/30 13:39:28;;;;;;;2.53;1.53;;;;;;;;;;5047114;28;20542;-46
2022/08/30 13:41:54;;;;;;;6.25;3.88;;;;;;;;;;5048954;28;20300;-46
2022/08/30 13:44:19;;;;;;;8.40;2.13;;;;;;;;;;5042661;28;20503;-40
2022/08/30 13:46:46;;;;;;;2.92;1.92;;;;;;;;;;5046222;28;20105;-42
2022/08/30 13:49:18;;;;;;;2.95;1.58;;;;;;;;;;5039720;28;20429;-45
2022/08/30 13:51:43;;;;;;;2.03;1.83;;;;;;;;;;5039711;28;20114;-45
2022/08/30 13:54:09;;;;;;;4.00;1.83;;;;;;;;;;5023819;28;20037;-46
2022/08/30 13:56:34;;;;;;;6.88;1.85;;;;;;;;;;5041812;28;20087;-45
2022/08/30 13:59:00;;;;;;;3.17;1.73;;;;;;;;;;5037428;28;20528;-44
2022/08/30 14:01:25;;;;;;;6.85;1.92;;;;;;;;;;5024057;28;20032;-47
2022/08/30 14:03:51;;;;;;;2.10;1.80;;;;;;;;;;5021220;28;20457;-43
2022/08/30 14:06:16;;;;;;;3.40;1.83;;;;;;;;;;5041862;28;20427;-44
2022/08/30 14:08:41;;;;;;;2.73;1.60;;;;;;;;;;5023614;28;20024;-44
2022/08/30 14:11:08;;;;;;;2.17;1.70;;;;;;;;;;5039685;28;20338;-43
2022/08/30 14:13:33;;;;;;;4.60;1.83;;;;;;;;;;5024800;28;20107;-42
2022/08/30 14:15:59;;;;;;;3.33;1.80;;;;;;;;;;5049669;28;20417;-42
2022/08/30 14:18:25;;;;;;;4.20;1.90;;;;;;;;;;5031949;28;20115;-38
2022/08/30 14:20:50;;;;;;;2.67;2.20;;;;;;;;;;5028936;28;20113;-43
2022/08/30 14:23:15;;;;;;;15.52;3.50;;;;;;;;;;5026615;28;20270;-43
2022/08/30 14:25:41;;;;;;;9.63;2.00;;;;;;;;;;5051875;28;20049;-42
2022/08/30 14:28:06;;;;;;;3.50;2.20;;;;;;;;;;5048806;28;20009;-45
2022/08/30 14:30:31;;;;;;;5.88;2.17;;;;;;;;;;5046057;28;20297;-45
2022/08/30 14:32:57;;;;;;;5.10;2.00;;;;;;;;;;5046912;28;20064;-40
2022/08/30 14:35:22;;;;;;;4.00;2.10;;;;;;;;;;5045469;28;20024;-43
2022/08/30 14:37:48;;;;;;;4.38;2.25;;;;;;;;;;5028564;28;20266;-44
2022/08/30 14:40:14;;;;;;;3.53;2.10;;;;;;;;;;5049176;28;20111;-43
2022/08/30 14:42:39;;;;;;;3.35;2.15;;;;;;;;;;5051397;28;20100;-41
2022/08/30 14:45:05;;;;;;;3.33;2.08;;;;;;;;;;5049051;28;20472;-43